Gray Army Air Field
KGRF : now visible

Airfield :











YOU CAN JOIN US ON...

 
LOGIN :

Register | Disclaimer

   EN    FR    IT 

 









Legend :    VFR   Marginal VFR   IFR   Intensive IFR   Very Intensive IFR
Visi :
Ceiling :
>= 8 km
>= 3000ft
5 to 8 km
1000 to 3000 ft
1500m to 5 km
500 to 1000 ft
800 to 1500m
200 to 500 ft
< 800m
< 200 ft
Symbols :   Thunderstorms  Fog  Heavy snow  Heavy precipitations  Wind > 20 kt






- Airport Elevation : 300 ft


KGRF - Gray Army Air Field

CURRENT METAR :
  • 110458Z 14004KT 3SM BR BKN005 OVC021 05/05 A3007 RMK AO2A SLP188 $

EXPIRED METARs :
  • 110309Z AUTO 00000KT 3SM -RA BR BKN004 OVC020 05/ A3009 RMK AO2 SLP195 $
  • 110258Z 00000KT 2SM -RA BR BKN005 BKN019 OVC024 05/05 A3009 RMK AO2A RAB19E47RAB57 CIG 019V024 BKN V SCT SLP195 P0001 60002 T00530053 56004 $
  • 110242Z AUTO 00000KT 3SM -RA BR SCT006 05/05 A3008 RMK AO2 RAB19 SLP192 $
  • 110232Z AUTO 00000KT 2 3/4SM -RA BR SCT006 OVC019 05/05 A3008 RMK AO2 VIS 2 1/2V4 RAB19 CIG 006V019 SLP192 $

TAF TAF KGRF
Valid from the 11 at 05:00 until the 12 at 11:00 UTC


110500Z 1105/1211 20009KT 3600 -RA OVC020 620505 QNH2990INS
TEMPO 1105/1111 OVC005
BECMG 1122/1123 20012G18KT 8000 -RA OVC020 620554 QNH2983INS
BECMG 1200/1201 19015G25KT 6000 -RA OVC015 QNH2976INS
TEMPO 1203/1210 19025G35KT 4800 RA OVC010 520009 TX09/1122Z TN05/1105Z



MET'MAP, your aeronautical weather chart ! - Copyright ORBIFLY December 2007 - Disclaimer

ORBIFLY MET'MAP TEAM :

Programming & Development : Alexandra Zaïnal
Concept & original design : Baudouin d'Aumeries
Assistance for programming : Marc-Olivier Méhu
Technical & hardware support : Manuel Goepfert

Contact : metmap@orbifly.com




SOURCES & CREDITS :

   NOAA       Earth
Advisory